sim
Sign-in with your pilot id or email,
or register
Callsign
Passwort

Schedule Details

Flight Number: OEF9071
Departure: Chicago O'Hare International Airport (KORD) at 05:20
Arrival: Munich Airport (EDDM) at 13:15

Weather Information
Getting current METAR information for KORD 221451Z 27004KT 10SM SCT170 BKN190 19/10 A3022 RMK AO2 SLP233 T01890100 56001 $
Getting current METAR information for EDDM 221450Z 04005KT 9999 FEW040 24/13 Q1011 NOSIG

Schedule Frequency

Route Map